sensor_id;sensor_type;location;lat;lon;timestamp;pressure;altitude;pressure_sealevel;temperature;humidity
51099;BME280;37146;48.210;16.234;2022-11-18T00:02:23;97365.53;;;4.55;100.00
51099;BME280;37146;48.210;16.234;2022-11-18T00:04:51;97364.94;;;4.49;100.00
51099;BME280;37146;48.210;16.234;2022-11-18T00:07:16;97369.63;;;4.44;100.00
51099;BME280;37146;48.210;16.234;2022-11-18T00:09:41;97367.25;;;4.56;100.00
51099;BME280;37146;48.210;16.234;2022-11-18T00:12:06;97363.09;;;4.52;100.00
51099;BME280;37146;48.210;16.234;2022-11-18T00:14:50;97358.47;;;4.55;100.00
51099;BME280;37146;48.210;16.234;2022-11-18T00:17:15;97365.38;;;4.58;100.00
51099;BME280;37146;48.210;16.234;2022-11-18T00:19:40;97363.41;;;4.61;100.00
51099;BME280;37146;48.210;16.234;2022-11-18T00:22:07;97358.38;;;4.57;100.00
51099;BME280;37146;48.210;16.234;2022-11-18T00:24:32;97349.34;;;4.61;100.00
51099;BME280;37146;48.210;16.234;2022-11-18T00:26:58;97351.38;;;4.56;100.00
51099;BME280;37146;48.210;16.234;2022-11-18T00:29:23;97355.81;;;4.55;100.00
51099;BME280;37146;48.210;16.234;2022-11-18T00:31:52;97342.19;;;4.63;100.00
51099;BME280;37146;48.210;16.234;2022-11-18T00:34:17;97344.28;;;4.40;100.00
51099;BME280;37146;48.210;16.234;2022-11-18T00:36:43;97345.22;;;4.39;100.00
51099;BME280;37146;48.210;16.234;2022-11-18T00:39:12;97350.44;;;4.57;100.00
51099;BME280;37146;48.210;16.234;2022-11-18T00:41:38;97344.34;;;4.55;100.00
51099;BME280;37146;48.210;16.234;2022-11-18T00:44:22;97345.91;;;4.59;100.00
51099;BME280;37146;48.210;16.234;2022-11-18T00:46:47;97339.84;;;4.73;100.00
51099;BME280;37146;48.210;16.234;2022-11-18T00:49:12;97335.50;;;4.72;100.00
51099;BME280;37146;48.210;16.234;2022-11-18T00:51:37;97329.53;;;4.68;100.00
51099;BME280;37146;48.210;16.234;2022-11-18T00:54:02;97341.97;;;4.66;100.00
51099;BME280;37146;48.210;16.234;2022-11-18T00:56:28;97343.44;;;4.56;100.00
51099;BME280;37146;48.210;16.234;2022-11-18T00:58:53;97345.75;;;4.62;100.00
51099;BME280;37146;48.210;16.234;2022-11-18T01:01:18;97361.13;;;4.55;100.00
51099;BME280;37146;48.210;16.234;2022-11-18T01:03:43;97363.00;;;4.69;100.00
51099;BME280;37146;48.210;16.234;2022-11-18T01:06:09;97355.06;;;4.69;100.00
51099;BME280;37146;48.210;16.234;2022-11-18T01:08:34;97350.53;;;4.71;100.00
51099;BME280;37146;48.210;16.234;2022-11-18T01:10:59;97351.63;;;4.67;100.00
51099;BME280;37146;48.210;16.234;2022-11-18T01:13:44;97349.16;;;4.64;100.00
51099;BME280;37146;48.210;16.234;2022-11-18T01:16:09;97341.97;;;4.66;100.00
51099;BME280;37146;48.210;16.234;2022-11-18T01:18:35;97333.44;;;4.61;100.00
51099;BME280;37146;48.210;16.234;2022-11-18T01:21:01;97336.88;;;4.63;100.00
51099;BME280;37146;48.210;16.234;2022-11-18T01:23:27;97336.25;;;4.58;100.00
51099;BME280;37146;48.210;16.234;2022-11-18T01:25:52;97331.47;;;4.48;100.00
51099;BME280;37146;48.210;16.234;2022-11-18T01:28:17;97323.88;;;4.58;100.00
51099;BME280;37146;48.210;16.234;2022-11-18T01:30:43;97316.53;;;4.63;100.00
51099;BME280;37146;48.210;16.234;2022-11-18T01:33:08;97313.53;;;4.54;100.00
51099;BME280;37146;48.210;16.234;2022-11-18T01:35:34;97302.00;;;4.55;100.00
51099;BME280;37146;48.210;16.234;2022-11-18T01:38:00;97302.50;;;4.45;100.00
51099;BME280;37146;48.210;16.234;2022-11-18T01:40:25;97298.16;;;4.44;100.00
51099;BME280;37146;48.210;16.234;2022-11-18T01:42:51;97291.34;;;4.56;100.00
51099;BME280;37146;48.210;16.234;2022-11-18T01:48:05;97281.75;;;4.54;100.00
51099;BME280;37146;48.210;16.234;2022-11-18T01:50:33;97274.69;;;4.54;100.00
51099;BME280;37146;48.210;16.234;2022-11-18T01:53:01;97270.06;;;4.42;100.00
51099;BME280;37146;48.210;16.234;2022-11-18T01:55:29;97277.91;;;4.43;100.00
51099;BME280;37146;48.210;16.234;2022-11-18T01:58:00;97270.03;;;4.26;100.00
51099;BME280;37146;48.210;16.234;2022-11-18T02:00:26;97266.38;;;4.44;100.00
51099;BME280;37146;48.210;16.234;2022-11-18T02:02:51;97271.09;;;4.39;100.00
51099;BME280;37146;48.210;16.234;2022-11-18T02:05:17;97265.97;;;4.36;100.00
51099;BME280;37146;48.210;16.234;2022-11-18T02:07:43;97278.25;;;4.37;100.00
51099;BME280;37146;48.210;16.234;2022-11-18T02:10:09;97288.31;;;4.30;100.00
51099;BME280;37146;48.210;16.234;2022-11-18T02:12:40;97303.34;;;4.30;100.00
51099;BME280;37146;48.210;16.234;2022-11-18T02:15:06;97312.03;;;4.32;100.00
51099;BME280;37146;48.210;16.234;2022-11-18T02:25:04;97302.19;;;4.52;100.00
51099;BME280;37146;48.210;16.234;2022-11-18T02:30:02;97299.53;;;4.52;100.00
51099;BME280;37146;48.210;16.234;2022-11-18T02:32:32;97295.50;;;4.60;100.00
51099;BME280;37146;48.210;16.234;2022-11-18T02:39:59;97275.47;;;4.56;100.00
51099;BME280;37146;48.210;16.234;2022-11-18T02:42:25;97281.34;;;4.61;100.00
51099;BME280;37146;48.210;16.234;2022-11-18T02:44:54;97272.63;;;4.59;100.00
51099;BME280;37146;48.210;16.234;2022-11-18T02:47:22;97268.72;;;4.51;100.00
51099;BME280;37146;48.210;16.234;2022-11-18T02:49:52;97261.69;;;4.66;100.00
51099;BME280;37146;48.210;16.234;2022-11-18T02:52:19;97274.84;;;4.67;100.00
51099;BME280;37146;48.210;16.234;2022-11-18T02:54:46;97267.56;;;4.71;100.00
51099;BME280;37146;48.210;16.234;2022-11-18T02:57:12;97265.13;;;4.68;100.00
51099;BME280;37146;48.210;16.234;2022-11-18T02:59:39;97261.03;;;4.62;100.00
51099;BME280;37146;48.210;16.234;2022-11-18T03:02:04;97269.53;;;4.67;100.00
51099;BME280;37146;48.210;16.234;2022-11-18T03:04:29;97267.16;;;4.62;100.00
51099;BME280;37146;48.210;16.234;2022-11-18T03:07:00;97266.31;;;4.62;100.00
51099;BME280;37146;48.210;16.234;2022-11-18T03:09:28;97261.03;;;4.62;100.00
51099;BME280;37146;48.210;16.234;2022-11-18T03:12:08;97260.75;;;4.67;100.00
51099;BME280;37146;48.210;16.234;2022-11-18T03:17:03;97259.31;;;4.61;100.00
51099;BME280;37146;48.210;16.234;2022-11-18T03:24:37;97249.72;;;4.58;100.00
51099;BME280;37146;48.210;16.234;2022-11-18T03:30:01;97237.78;;;4.51;100.00
51099;BME280;37146;48.210;16.234;2022-11-18T03:32:29;97247.34;;;4.54;100.00
51099;BME280;37146;48.210;16.234;2022-11-18T03:35:00;97242.41;;;4.47;100.00
51099;BME280;37146;48.210;16.234;2022-11-18T03:37:26;97248.38;;;4.51;100.00
51099;BME280;37146;48.210;16.234;2022-11-18T03:39:53;97241.09;;;4.55;100.00
51099;BME280;37146;48.210;16.234;2022-11-18T03:42:24;97236.69;;;4.55;100.00
51099;BME280;37146;48.210;16.234;2022-11-18T03:44:51;97232.22;;;4.56;100.00
51099;BME280;37146;48.210;16.234;2022-11-18T03:47:23;97236.75;;;4.54;100.00
51099;BME280;37146;48.210;16.234;2022-11-18T03:49:52;97239.66;;;4.49;100.00
51099;BME280;37146;48.210;16.234;2022-11-18T03:52:26;97237.94;;;4.48;100.00
51099;BME280;37146;48.210;16.234;2022-11-18T03:54:52;97230.88;;;4.48;100.00
51099;BME280;37146;48.210;16.234;2022-11-18T03:57:21;97237.88;;;4.49;100.00
51099;BME280;37146;48.210;16.234;2022-11-18T03:59:52;97236.94;;;4.51;100.00
51099;BME280;37146;48.210;16.234;2022-11-18T04:02:25;97241.97;;;4.55;100.00
51099;BME280;37146;48.210;16.234;2022-11-18T04:04:52;97240.31;;;4.53;100.00
51099;BME280;37146;48.210;16.234;2022-11-18T04:10:00;97241.19;;;4.53;100.00
51099;BME280;37146;48.210;16.234;2022-11-18T04:12:28;97254.28;;;4.56;100.00
51099;BME280;37146;48.210;16.234;2022-11-18T04:14:55;97264.66;;;4.75;100.00
51099;BME280;37146;48.210;16.234;2022-11-18T04:17:21;97263.47;;;4.81;100.00
51099;BME280;37146;48.210;16.234;2022-11-18T04:19:48;97259.09;;;4.80;100.00
51099;BME280;37146;48.210;16.234;2022-11-18T04:22:13;97254.53;;;4.68;100.00
51099;BME280;37146;48.210;16.234;2022-11-18T04:24:39;97255.38;;;4.68;100.00
51099;BME280;37146;48.210;16.234;2022-11-18T04:27:04;97263.16;;;4.71;100.00
51099;BME280;37146;48.210;16.234;2022-11-18T04:29:30;97258.84;;;4.69;100.00
51099;BME280;37146;48.210;16.234;2022-11-18T04:31:55;97258.78;;;4.70;100.00
51099;BME280;37146;48.210;16.234;2022-11-18T04:34:21;97261.44;;;4.70;100.00
51099;BME280;37146;48.210;16.234;2022-11-18T04:36:46;97251.63;;;4.72;100.00
51099;BME280;37146;48.210;16.234;2022-11-18T04:39:11;97251.00;;;4.67;100.00
51099;BME280;37146;48.210;16.234;2022-11-18T04:41:36;97246.75;;;4.64;100.00
51099;BME280;37146;48.210;16.234;2022-11-18T04:44:20;97246.91;;;4.77;100.00
51099;BME280;37146;48.210;16.234;2022-11-18T04:46:45;97248.72;;;4.77;100.00
51099;BME280;37146;48.210;16.234;2022-11-18T04:49:11;97245.78;;;4.82;100.00
51099;BME280;37146;48.210;16.234;2022-11-18T04:51:37;97242.91;;;4.70;100.00
51099;BME280;37146;48.210;16.234;2022-11-18T04:54:03;97243.91;;;4.84;100.00
51099;BME280;37146;48.210;16.234;2022-11-18T04:56:28;97234.84;;;4.88;100.00
51099;BME280;37146;48.210;16.234;2022-11-18T04:58:54;97231.94;;;4.76;100.00
51099;BME280;37146;48.210;16.234;2022-11-18T05:01:19;97239.47;;;4.68;100.00
51099;BME280;37146;48.210;16.234;2022-11-18T05:03:44;97240.41;;;4.67;100.00
51099;BME280;37146;48.210;16.234;2022-11-18T05:06:10;97238.97;;;4.77;100.00
51099;BME280;37146;48.210;16.234;2022-11-18T05:08:35;97238.19;;;4.75;100.00
51099;BME280;37146;48.210;16.234;2022-11-18T05:11:04;97229.22;;;4.78;100.00
51099;BME280;37146;48.210;16.234;2022-11-18T05:13:48;97232.16;;;4.73;100.00
51099;BME280;37146;48.210;16.234;2022-11-18T05:16:14;97230.06;;;4.78;100.00
51099;BME280;37146;48.210;16.234;2022-11-18T05:18:39;97229.66;;;4.70;100.00
51099;BME280;37146;48.210;16.234;2022-11-18T05:21:04;97225.31;;;4.69;100.00
51099;BME280;37146;48.210;16.234;2022-11-18T05:23:30;97222.66;;;4.69;100.00
51099;BME280;37146;48.210;16.234;2022-11-18T05:25:55;97226.25;;;4.68;100.00
51099;BME280;37146;48.210;16.234;2022-11-18T05:28:20;97220.94;;;4.68;100.00
51099;BME280;37146;48.210;16.234;2022-11-18T05:30:45;97215.91;;;4.63;100.00
51099;BME280;37146;48.210;16.234;2022-11-18T05:33:11;97224.13;;;4.59;100.00
51099;BME280;37146;48.210;16.234;2022-11-18T05:35:36;97225.72;;;4.77;100.00
51099;BME280;37146;48.210;16.234;2022-11-18T05:38:01;97224.25;;;4.72;100.00
51099;BME280;37146;48.210;16.234;2022-11-18T05:40:26;97228.53;;;4.74;100.00
51099;BME280;37146;48.210;16.234;2022-11-18T05:42:51;97227.00;;;4.70;100.00
51099;BME280;37146;48.210;16.234;2022-11-18T05:45:35;97224.94;;;4.75;100.00
51099;BME280;37146;48.210;16.234;2022-11-18T05:48:00;97230.22;;;4.75;100.00
51099;BME280;37146;48.210;16.234;2022-11-18T05:50:27;97234.69;;;4.75;100.00
51099;BME280;37146;48.210;16.234;2022-11-18T05:52:53;97238.44;;;4.71;100.00
51099;BME280;37146;48.210;16.234;2022-11-18T05:55:18;97246.13;;;4.75;100.00
51099;BME280;37146;48.210;16.234;2022-11-18T05:57:44;97252.97;;;4.79;100.00
51099;BME280;37146;48.210;16.234;2022-11-18T06:00:10;97257.59;;;4.76;100.00
51099;BME280;37146;48.210;16.234;2022-11-18T06:02:35;97257.09;;;4.69;100.00
51099;BME280;37146;48.210;16.234;2022-11-18T06:05:01;97265.81;;;4.71;100.00
51099;BME280;37146;48.210;16.234;2022-11-18T06:07:37;97256.91;;;4.72;100.00
51099;BME280;37146;48.210;16.234;2022-11-18T06:10:03;97259.97;;;4.80;100.00
51099;BME280;37146;48.210;16.234;2022-11-18T06:12:29;97252.19;;;4.77;100.00
51099;BME280;37146;48.210;16.234;2022-11-18T06:14:57;97256.72;;;4.75;100.00
51099;BME280;37146;48.210;16.234;2022-11-18T06:17:26;97249.28;;;4.82;100.00
51099;BME280;37146;48.210;16.234;2022-11-18T06:19:53;97250.31;;;4.79;100.00
51099;BME280;37146;48.210;16.234;2022-11-18T06:22:19;97247.50;;;4.83;100.00
51099;BME280;37146;48.210;16.234;2022-11-18T06:24:44;97260.16;;;4.77;100.00
51099;BME280;37146;48.210;16.234;2022-11-18T06:27:10;97257.50;;;4.77;100.00
51099;BME280;37146;48.210;16.234;2022-11-18T06:29:36;97256.41;;;4.82;100.00
51099;BME280;37146;48.210;16.234;2022-11-18T06:32:01;97253.91;;;4.78;100.00
51099;BME280;37146;48.210;16.234;2022-11-18T06:34:27;97255.78;;;4.76;100.00
51099;BME280;37146;48.210;16.234;2022-11-18T06:36:52;97253.66;;;4.83;100.00
51099;BME280;37146;48.210;16.234;2022-11-18T06:39:17;97257.44;;;4.79;100.00
51099;BME280;37146;48.210;16.234;2022-11-18T06:41:43;97259.63;;;4.71;100.00
51099;BME280;37146;48.210;16.234;2022-11-18T06:44:10;97268.44;;;4.71;100.00
51099;BME280;37146;48.210;16.234;2022-11-18T06:46:35;97272.44;;;4.78;100.00
51099;BME280;37146;48.210;16.234;2022-11-18T06:49:19;97274.25;;;4.78;100.00
51099;BME280;37146;48.210;16.234;2022-11-18T06:51:44;97274.53;;;4.73;100.00
51099;BME280;37146;48.210;16.234;2022-11-18T06:54:09;97287.00;;;4.71;100.00
51099;BME280;37146;48.210;16.234;2022-11-18T06:56:35;97279.72;;;4.75;100.00
51099;BME280;37146;48.210;16.234;2022-11-18T06:59:00;97282.69;;;4.69;100.00
51099;BME280;37146;48.210;16.234;2022-11-18T07:01:27;97284.84;;;4.62;100.00
51099;BME280;37146;48.210;16.234;2022-11-18T07:03:52;97286.56;;;4.63;100.00
51099;BME280;37146;48.210;16.234;2022-11-18T07:06:18;97278.94;;;4.57;100.00
51099;BME280;37146;48.210;16.234;2022-11-18T07:08:44;97290.63;;;4.53;100.00
51099;BME280;37146;48.210;16.234;2022-11-18T07:11:10;97286.31;;;4.52;100.00
51099;BME280;37146;48.210;16.234;2022-11-18T07:13:36;97294.16;;;4.69;100.00
51099;BME280;37146;48.210;16.234;2022-11-18T07:16:04;97296.38;;;4.61;100.00
51099;BME280;37146;48.210;16.234;2022-11-18T07:18:31;97291.41;;;4.55;100.00
51099;BME280;37146;48.210;16.234;2022-11-18T07:20:56;97295.44;;;4.62;100.00
51099;BME280;37146;48.210;16.234;2022-11-18T07:23:21;97292.59;;;4.65;100.00
51099;BME280;37146;48.210;16.234;2022-11-18T07:25:47;97292.97;;;4.59;100.00
51099;BME280;37146;48.210;16.234;2022-11-18T07:28:12;97295.88;;;4.54;100.00
51099;BME280;37146;48.210;16.234;2022-11-18T07:30:37;97295.59;;;4.59;100.00
51099;BME280;37146;48.210;16.234;2022-11-18T07:33:02;97283.03;;;4.46;100.00
51099;BME280;37146;48.210;16.234;2022-11-18T07:35:27;97287.47;;;4.30;100.00
51099;BME280;37146;48.210;16.234;2022-11-18T07:37:53;97270.84;;;4.44;100.00
51099;BME280;37146;48.210;16.234;2022-11-18T07:40:18;97269.53;;;4.67;100.00
51099;BME280;37146;48.210;16.234;2022-11-18T07:42:43;97255.28;;;4.70;100.00
51099;BME280;37146;48.210;16.234;2022-11-18T07:45:11;97257.09;;;4.69;100.00
51099;BME280;37146;48.210;16.234;2022-11-18T07:47:36;97259.56;;;4.72;100.00
51099;BME280;37146;48.210;16.234;2022-11-18T07:50:02;97264.00;;;4.72;100.00
51099;BME280;37146;48.210;16.234;2022-11-18T07:52:28;97256.72;;;4.75;100.00
51099;BME280;37146;48.210;16.234;2022-11-18T07:54:53;97256.91;;;4.72;100.00
51099;BME280;37146;48.210;16.234;2022-11-18T07:57:18;97260.31;;;4.74;100.00
51099;BME280;37146;48.210;16.234;2022-11-18T07:59:43;97269.38;;;4.70;100.00
51099;BME280;37146;48.210;16.234;2022-11-18T08:02:11;97265.53;;;4.76;100.00
51099;BME280;37146;48.210;16.234;2022-11-18T08:04:37;97263.06;;;4.73;100.00
51099;BME280;37146;48.210;16.234;2022-11-18T08:07:02;97264.91;;;4.87;100.00
51099;BME280;37146;48.210;16.234;2022-11-18T08:09:27;97259.44;;;4.90;100.00
51099;BME280;37146;48.210;16.234;2022-11-18T08:11:52;97259.28;;;4.93;100.00
51099;BME280;37146;48.210;16.234;2022-11-18T08:14:17;97259.13;;;4.96;100.00
51099;BME280;37146;48.210;16.234;2022-11-18T08:16:43;97260.38;;;4.89;100.00
51099;BME280;37146;48.210;16.234;2022-11-18T08:19:08;97263.22;;;4.86;100.00
51099;BME280;37146;48.210;16.234;2022-11-18T08:21:33;97266.47;;;4.91;100.00
51099;BME280;37146;48.210;16.234;2022-11-18T08:23:58;97258.63;;;4.89;100.00
51099;BME280;37146;48.210;16.234;2022-11-18T08:26:24;97263.66;;;4.94;100.00
51099;BME280;37146;48.210;16.234;2022-11-18T08:28:49;97268.06;;;4.93;100.00
51099;BME280;37146;48.210;16.234;2022-11-18T08:31:18;97264.41;;;4.96;100.00
51099;BME280;37146;48.210;16.234;2022-11-18T08:33:44;97266.56;;;4.89;100.00
51099;BME280;37146;48.210;16.234;2022-11-18T08:36:12;97264.31;;;4.98;100.00
51099;BME280;37146;48.210;16.234;2022-11-18T08:38:38;97258.66;;;5.04;100.00
51099;BME280;37146;48.210;16.234;2022-11-18T08:41:04;97264.91;;;5.03;100.00
51099;BME280;37146;48.210;16.234;2022-11-18T08:43:31;97256.09;;;5.02;100.00
51099;BME280;37146;48.210;16.234;2022-11-18T08:45:56;97259.28;;;4.93;100.00
51099;BME280;37146;48.210;16.234;2022-11-18T08:48:21;97253.72;;;4.98;100.00
51099;BME280;37146;48.210;16.234;2022-11-18T08:50:46;97256.28;;;4.99;100.00
51099;BME280;37146;48.210;16.234;2022-11-18T08:53:13;97256.09;;;5.02;100.00
51099;BME280;37146;48.210;16.234;2022-11-18T08:55:39;97257.97;;;5.00;100.00
51099;BME280;37146;48.210;16.234;2022-11-18T08:58:05;97252.78;;;4.99;100.00
51099;BME280;37146;48.210;16.234;2022-11-18T09:00:30;97261.41;;;5.02;100.00
51099;BME280;37146;48.210;16.234;2022-11-18T09:02:55;97264.06;;;4.86;100.00
51099;BME280;37146;48.210;16.234;2022-11-18T09:05:20;97261.16;;;4.91;100.00
51099;BME280;37146;48.210;16.234;2022-11-18T09:07:46;97257.75;;;4.89;100.00
51099;BME280;37146;48.210;16.234;2022-11-18T09:10:11;97261.00;;;4.94;100.00
51099;BME280;37146;48.210;16.234;2022-11-18T09:12:36;97255.69;;;4.94;100.00
51099;BME280;37146;48.210;16.234;2022-11-18T09:15:01;97253.72;;;4.98;100.00
51099;BME280;37146;48.210;16.234;2022-11-18T09:17:27;97250.41;;;4.94;100.00
51099;BME280;37146;48.210;16.234;2022-11-18T09:19:53;97248.16;;;5.02;100.00
51099;BME280;37146;48.210;16.234;2022-11-18T09:22:18;97244.50;;;4.89;100.00
51099;BME280;37146;48.210;16.234;2022-11-18T09:24:43;97243.56;;;4.90;100.00
51099;BME280;37146;48.210;16.234;2022-11-18T09:27:08;97240.13;;;4.88;100.00
51099;BME280;37146;48.210;16.234;2022-11-18T09:29:34;97243.66;;;4.88;100.00
51099;BME280;37146;48.210;16.234;2022-11-18T09:31:59;97246.97;;;4.92;100.00
51099;BME280;37146;48.210;16.234;2022-11-18T09:34:26;97245.09;;;4.94;100.00
51099;BME280;37146;48.210;16.234;2022-11-18T09:36:51;97250.41;;;4.94;100.00
51099;BME280;37146;48.210;16.234;2022-11-18T09:39:19;97248.09;;;4.88;100.00
51099;BME280;37146;48.210;16.234;2022-11-18T09:41:46;97241.41;;;4.97;100.00
51099;BME280;37146;48.210;16.234;2022-11-18T09:49:25;97237.66;;;5.01;100.00
51099;BME280;37146;48.210;16.234;2022-11-18T09:51:51;97234.31;;;4.97;100.00
51099;BME280;37146;48.210;16.234;2022-11-18T09:54:27;97235.19;;;4.98;100.00
51099;BME280;37146;48.210;16.234;2022-11-18T09:56:54;97231.22;;;5.05;100.00
51099;BME280;37146;48.210;16.234;2022-11-18T09:59:21;97232.50;;;5.14;100.00
51099;BME280;37146;48.210;16.234;2022-11-18T10:01:47;97218.88;;;5.20;100.00
51099;BME280;37146;48.210;16.234;2022-11-18T10:04:14;97221.94;;;5.28;100.00
51099;BME280;37146;48.210;16.234;2022-11-18T10:06:40;97228.75;;;5.32;100.00
51099;BME280;37146;48.210;16.234;2022-11-18T10:09:23;97223.84;;;5.40;100.00
51099;BME280;37146;48.210;16.234;2022-11-18T10:14:23;97220.66;;;5.50;100.00
51099;BME280;37146;48.210;16.234;2022-11-18T10:19:31;97206.34;;;5.52;100.00
51099;BME280;37146;48.210;16.234;2022-11-18T10:24:31;97208.53;;;5.75;100.00
51099;BME280;37146;48.210;16.234;2022-11-18T10:26:58;97213.75;;;5.91;100.00
51099;BME280;37146;48.210;16.234;2022-11-18T10:29:24;97203.28;;;6.03;100.00
51099;BME280;37146;48.210;16.234;2022-11-18T10:34:20;97193.78;;;6.28;100.00
51099;BME280;37146;48.210;16.234;2022-11-18T10:36:59;97186.38;;;6.33;100.00
51099;BME280;37146;48.210;16.234;2022-11-18T10:39:25;97180.91;;;6.49;100.00
51099;BME280;37146;48.210;16.234;2022-11-18T10:41:50;97182.03;;;6.60;100.00
51099;BME280;37146;48.210;16.234;2022-11-18T10:49:56;97181.34;;;6.71;100.00
51099;BME280;37146;48.210;16.234;2022-11-18T10:52:21;97180.53;;;6.83;100.00
51099;BME280;37146;48.210;16.234;2022-11-18T10:55:04;97179.66;;;6.83;100.00
51099;BME280;37146;48.210;16.234;2022-11-18T10:57:30;97179.84;;;6.79;100.00
51099;BME280;37146;48.210;16.234;2022-11-18T10:59:59;97182.00;;;6.87;100.00
51099;BME280;37146;48.210;16.234;2022-11-18T11:02:31;97187.03;;;6.92;100.00
51099;BME280;37146;48.210;16.234;2022-11-18T11:04:58;97183.09;;;6.97;100.00
51099;BME280;37146;48.210;16.234;2022-11-18T11:07:33;97186.00;;;6.94;100.00
51099;BME280;37146;48.210;16.234;2022-11-18T11:12:25;97180.06;;;7.04;100.00
51099;BME280;37146;48.210;16.234;2022-11-18T11:15:01;97177.34;;;6.91;100.00
51099;BME280;37146;48.210;16.234;2022-11-18T11:17:34;97177.59;;;7.01;100.00
51099;BME280;37146;48.210;16.234;2022-11-18T11:20:03;97185.56;;;7.01;100.00
51099;BME280;37146;48.210;16.234;2022-11-18T11:22:29;97175.88;;;7.00;100.00
51099;BME280;37146;48.210;16.234;2022-11-18T11:24:55;97173.13;;;7.01;100.00
51099;BME280;37146;48.210;16.234;2022-11-18T11:32:56;97168.88;;;6.99;100.00
51099;BME280;37146;48.210;16.234;2022-11-18T11:35:25;97167.81;;;7.01;100.00
51099;BME280;37146;48.210;16.234;2022-11-18T11:37:54;97167.38;;;6.94;100.00
51099;BME280;37146;48.210;16.234;2022-11-18T11:45:35;97172.69;;;6.94;100.00
51099;BME280;37146;48.210;16.234;2022-11-18T11:48:20;97165.13;;;6.88;100.00
51099;BME280;37146;48.210;16.234;2022-11-18T11:50:51;97174.81;;;6.89;100.00
51099;BME280;37146;48.210;16.234;2022-11-18T12:00:58;97161.19;;;6.81;100.00
51099;BME280;37146;48.210;16.234;2022-11-18T12:05:58;97176.19;;;6.95;100.00
51099;BME280;37146;48.210;16.234;2022-11-18T12:08:24;97179.50;;;6.99;100.00
51099;BME280;37146;48.210;16.234;2022-11-18T12:11:03;97173.13;;;7.01;100.00
51099;BME280;37146;48.210;16.234;2022-11-18T12:13:33;97175.13;;;6.97;100.00
51099;BME280;37146;48.210;16.234;2022-11-18T12:16:17;97170.16;;;7.06;100.00
51099;BME280;37146;48.210;16.234;2022-11-18T12:18:56;97167.72;;;7.03;100.00
51099;BME280;37146;48.210;16.234;2022-11-18T12:26:47;97168.97;;;6.97;100.00
51099;BME280;37146;48.210;16.234;2022-11-18T12:31:48;97170.56;;;7.00;100.00
51099;BME280;37146;48.210;16.234;2022-11-18T12:36:49;97161.84;;;6.97;100.00
51099;BME280;37146;48.210;16.234;2022-11-18T12:41:52;97176.22;;;7.08;100.00
51099;BME280;37146;48.210;16.234;2022-11-18T12:44:36;97167.50;;;7.06;100.00
51099;BME280;37146;48.210;16.234;2022-11-18T12:47:03;97178.09;;;6.93;100.00
51099;BME280;37146;48.210;16.234;2022-11-18T12:51:55;97178.66;;;6.98;100.00
51099;BME280;37146;48.210;16.234;2022-11-18T12:56:49;97186.94;;;6.93;100.00
51099;BME280;37146;48.210;16.234;2022-11-18T12:59:15;97192.25;;;6.93;100.00
51099;BME280;37146;48.210;16.234;2022-11-18T13:01:40;97188.84;;;6.91;100.00
51099;BME280;37146;48.210;16.234;2022-11-18T13:04:06;97188.94;;;6.90;100.00
51099;BME280;37146;48.210;16.234;2022-11-18T13:06:32;97187.09;;;6.77;100.00
51099;BME280;37146;48.210;16.234;2022-11-18T13:08:59;97184.31;;;6.66;100.00
51099;BME280;37146;48.210;16.234;2022-11-18T13:11:26;97190.25;;;6.70;100.00
51099;BME280;37146;48.210;16.234;2022-11-18T13:14:43;97194.06;;;6.65;100.00
51099;BME280;37146;48.210;16.234;2022-11-18T13:17:33;97194.66;;;6.56;100.00
51099;BME280;37146;48.210;16.234;2022-11-18T13:20:22;97199.81;;;6.45;100.00
51099;BME280;37146;48.210;16.234;2022-11-18T13:22:52;97194.72;;;6.27;100.00
51099;BME280;37146;48.210;16.234;2022-11-18T13:25:36;97199.81;;;6.30;100.00
51099;BME280;37146;48.210;16.234;2022-11-18T13:30:27;97204.88;;;6.21;100.00
51099;BME280;37146;48.210;16.234;2022-11-18T13:32:53;97202.22;;;6.21;100.00
51099;BME280;37146;48.210;16.234;2022-11-18T13:35:22;97209.53;;;6.17;100.00
51099;BME280;37146;48.210;16.234;2022-11-18T13:37:55;97211.03;;;6.07;100.00
51099;BME280;37146;48.210;16.234;2022-11-18T13:40:25;97221.09;;;6.01;100.00
51099;BME280;37146;48.210;16.234;2022-11-18T13:42:51;97215.94;;;5.98;100.00
51099;BME280;37146;48.210;16.234;2022-11-18T13:45:16;97216.50;;;5.89;100.00
51099;BME280;37146;48.210;16.234;2022-11-18T13:47:51;97226.66;;;5.82;100.00
51099;BME280;37146;48.210;16.234;2022-11-18T13:50:35;97230.72;;;5.88;100.00
51099;BME280;37146;48.210;16.234;2022-11-18T13:55:35;97225.03;;;5.65;100.00
51099;BME280;37146;48.210;16.234;2022-11-18T13:58:03;97222.38;;;5.65;100.00
51099;BME280;37146;48.210;16.234;2022-11-18T14:00:30;97229.09;;;5.56;100.00
51099;BME280;37146;48.210;16.234;2022-11-18T14:02:57;97230.50;;;5.48;100.00
51099;BME280;37146;48.210;16.234;2022-11-18T14:05:23;97241.28;;;5.45;100.00
51099;BME280;37146;48.210;16.234;2022-11-18T14:10:38;97239.13;;;5.21;100.00
51099;BME280;37146;48.210;16.234;2022-11-18T14:13:11;97247.75;;;5.24;100.00
51099;BME280;37146;48.210;16.234;2022-11-18T14:15:39;97250.16;;;5.13;100.00
51099;BME280;37146;48.210;16.234;2022-11-18T14:18:13;97251.56;;;5.04;100.00
51099;BME280;37146;48.210;16.234;2022-11-18T14:20:40;97248.31;;;4.99;100.00
51099;BME280;37146;48.210;16.234;2022-11-18T14:23:13;97259.63;;;4.87;100.00
51099;BME280;37146;48.210;16.234;2022-11-18T14:25:41;97257.84;;;4.87;100.00
51099;BME280;37146;48.210;16.234;2022-11-18T14:30:36;97266.47;;;4.75;100.00
51099;BME280;37146;48.210;16.234;2022-11-18T14:33:07;97267.66;;;4.69;100.00
51099;BME280;37146;48.210;16.234;2022-11-18T14:35:33;97275.00;;;4.64;100.00
51099;BME280;37146;48.210;16.234;2022-11-18T14:37:58;97267.00;;;4.49;100.00